createdAt,value
2022-10-18T00:01:08.102Z,23.23
2022-10-18T00:06:09.401Z,23.18
2022-10-18T00:08:39.045Z,23.15
2022-10-18T00:11:07.933Z,23.13
2022-10-18T00:13:36.213Z,23.10
2022-10-18T00:16:09.961Z,23.07
2022-10-18T00:18:37.995Z,23.04
2022-10-18T00:21:11.806Z,23.02
2022-10-18T00:23:40.288Z,22.99
2022-10-18T00:26:15.421Z,22.96
2022-10-18T00:28:44.259Z,22.94
2022-10-18T00:31:16.982Z,22.92
2022-10-18T00:33:47.173Z,22.89
2022-10-18T00:36:15.969Z,22.87
2022-10-18T00:38:44.910Z,22.85
2022-10-18T00:41:17.010Z,22.82
2022-10-18T00:44:26.700Z,22.80
2022-10-18T00:47:05.090Z,22.76
2022-10-18T00:49:37.570Z,22.73
2022-10-18T00:52:35.750Z,22.70
2022-10-18T00:55:05.979Z,22.68
2022-10-18T00:57:34.424Z,22.64
2022-10-18T01:00:04.335Z,22.62
2022-10-18T01:02:32.901Z,22.60
2022-10-18T01:05:01.049Z,22.57
2022-10-18T01:07:57.023Z,22.56
2022-10-18T01:10:49.845Z,22.56
2022-10-18T01:13:39.564Z,22.56
2022-10-18T01:16:31.254Z,22.56
2022-10-18T01:19:27.305Z,22.58
2022-10-18T01:22:08.165Z,22.59
2022-10-18T01:24:52.854Z,22.59
2022-10-18T01:27:36.246Z,22.60
2022-10-18T01:30:15.267Z,22.60
2022-10-18T01:32:49.086Z,22.61
2022-10-18T01:35:33.032Z,22.61
2022-10-18T01:38:06.925Z,22.62
2022-10-18T01:40:37.042Z,22.63
2022-10-18T01:45:35.253Z,22.61
2022-10-18T01:48:03.934Z,22.59
2022-10-18T01:50:34.202Z,22.57
2022-10-18T01:53:02.552Z,22.56
2022-10-18T01:55:43.548Z,22.55
2022-10-18T01:58:40.416Z,22.52
2022-10-18T02:01:43.735Z,22.51
2022-10-18T02:04:33.799Z,22.49
2022-10-18T02:07:55.448Z,22.47
2022-10-18T02:11:00.005Z,22.42
2022-10-18T02:13:34.857Z,22.37
2022-10-18T02:16:09.978Z,22.35
2022-10-18T02:18:42.551Z,22.32
2022-10-18T02:21:15.948Z,22.30
2022-10-18T02:23:46.274Z,22.29
2022-10-18T02:26:16.107Z,22.27
2022-10-18T02:28:45.908Z,22.24
2022-10-18T02:31:26.467Z,22.22
2022-10-18T02:33:58.984Z,22.20
2022-10-18T02:36:39.089Z,22.17
2022-10-18T02:39:14.444Z,22.15
2022-10-18T02:41:43.025Z,22.13
2022-10-18T02:44:11.510Z,22.11
2022-10-18T02:46:40.613Z,22.09
2022-10-18T02:49:08.784Z,22.07
2022-10-18T02:51:36.728Z,22.05
2022-10-18T02:54:05.550Z,22.02
2022-10-18T02:56:33.631Z,21.99
2022-10-18T02:59:01.907Z,21.97
2022-10-18T03:01:29.919Z,21.96
2022-10-18T03:03:57.955Z,21.95
2022-10-18T03:06:26.047Z,21.94
2022-10-18T03:08:54.355Z,21.93
2022-10-18T03:11:22.599Z,21.92
2022-10-18T03:13:50.467Z,21.90
2022-10-18T03:16:18.953Z,21.89
2022-10-18T03:18:46.768Z,21.88
2022-10-18T03:21:14.798Z,21.86
2022-10-18T03:23:42.787Z,21.84
2022-10-18T03:26:10.849Z,21.83
2022-10-18T03:28:38.888Z,21.80
2022-10-18T03:31:07.069Z,21.78
2022-10-18T03:33:35.382Z,21.77
2022-10-18T03:36:03.353Z,21.75
2022-10-18T03:38:31.848Z,21.72
2022-10-18T03:40:59.817Z,21.70
2022-10-18T03:43:27.991Z,21.68
2022-10-18T03:45:56.309Z,21.65
2022-10-18T03:48:24.294Z,21.64
2022-10-18T03:50:52.222Z,21.62
2022-10-18T03:53:20.295Z,21.60
2022-10-18T03:55:52.871Z,21.60
2022-10-18T03:58:21.584Z,21.58
2022-10-18T04:00:51.484Z,21.56
2022-10-18T04:03:21.198Z,21.55
2022-10-18T04:05:49.682Z,21.54
2022-10-18T04:08:18.575Z,21.53
2022-10-18T04:10:46.667Z,21.52
2022-10-18T04:13:14.876Z,21.51
2022-10-18T04:15:43.454Z,21.50
2022-10-18T04:18:11.389Z,21.49
2022-10-18T04:20:39.387Z,21.47
2022-10-18T04:23:07.236Z,21.46
2022-10-18T04:25:35.289Z,21.44
2022-10-18T04:28:03.387Z,21.44
2022-10-18T04:30:31.307Z,21.42
2022-10-18T04:32:59.543Z,21.40
2022-10-18T04:35:27.822Z,21.40
2022-10-18T04:37:55.894Z,21.39
2022-10-18T04:40:23.971Z,21.38
2022-10-18T04:42:51.947Z,21.37
2022-10-18T04:45:19.921Z,21.37
2022-10-18T04:47:47.901Z,21.36
2022-10-18T04:50:15.898Z,21.37
2022-10-18T04:52:44.579Z,21.40
2022-10-18T04:55:12.433Z,21.39
2022-10-18T04:57:40.709Z,21.39
2022-10-18T05:00:09.144Z,21.39
2022-10-18T05:02:37.376Z,21.39
2022-10-18T05:05:08.114Z,21.39
2022-10-18T05:07:38.435Z,21.39
2022-10-18T05:10:07.843Z,21.38
2022-10-18T05:12:36.121Z,21.39
2022-10-18T05:15:04.816Z,21.39
2022-10-18T05:17:32.858Z,21.41
2022-10-18T05:20:00.926Z,21.41
2022-10-18T05:22:29.389Z,21.43
2022-10-18T05:24:57.935Z,21.43
2022-10-18T05:27:25.833Z,21.42
2022-10-18T05:29:53.643Z,21.39
2022-10-18T05:32:22.029Z,21.37
2022-10-18T05:34:50.350Z,21.35
2022-10-18T05:37:18.454Z,21.35
2022-10-18T05:39:46.401Z,21.34
2022-10-18T05:42:14.374Z,21.35
2022-10-18T05:44:42.886Z,21.34
2022-10-18T05:47:11.134Z,21.33
2022-10-18T05:49:39.191Z,21.32
2022-10-18T05:52:07.064Z,21.30
2022-10-18T05:54:35.114Z,21.30
2022-10-18T05:57:02.990Z,21.30
2022-10-18T05:59:30.952Z,21.28
2022-10-18T06:01:59.142Z,21.28
2022-10-18T06:04:27.150Z,21.27
2022-10-18T06:06:55.261Z,21.26
2022-10-18T06:09:23.426Z,21.25
2022-10-18T06:11:51.378Z,21.24
2022-10-18T06:14:19.252Z,21.23
2022-10-18T06:16:47.224Z,21.21
2022-10-18T06:19:15.613Z,21.20
2022-10-18T06:21:44.555Z,21.17
2022-10-18T06:24:12.510Z,21.14
2022-10-18T06:26:40.449Z,21.12
2022-10-18T06:29:08.527Z,21.10
2022-10-18T06:31:37.520Z,21.09
2022-10-18T06:34:05.682Z,21.08
2022-10-18T06:36:33.676Z,21.07
2022-10-18T06:39:01.641Z,21.05
2022-10-18T06:41:29.624Z,21.05
2022-10-18T06:43:57.597Z,21.04
2022-10-18T06:46:26.493Z,21.05
2022-10-18T06:48:54.677Z,21.06
2022-10-18T06:51:22.852Z,21.08
2022-10-18T06:54:05.870Z,21.10
2022-10-18T06:56:39.396Z,21.13
2022-10-18T06:59:07.443Z,21.16
2022-10-18T07:01:35.679Z,21.20
2022-10-18T07:04:04.002Z,21.23
2022-10-18T07:06:32.399Z,21.27
2022-10-18T07:09:00.264Z,21.33
2022-10-18T07:11:28.331Z,21.42
2022-10-18T07:14:00.600Z,21.52
2022-10-18T07:16:29.290Z,21.63
2022-10-18T07:18:57.571Z,21.71
2022-10-18T07:21:26.568Z,21.79
2022-10-18T07:23:56.941Z,21.87
2022-10-18T07:26:28.359Z,21.93
2022-10-18T07:29:04.764Z,22.01
2022-10-18T07:31:35.774Z,22.07
2022-10-18T07:34:05.353Z,22.14
2022-10-18T07:36:34.162Z,22.21
2022-10-18T07:39:02.116Z,22.27
2022-10-18T07:41:30.313Z,22.33
2022-10-18T07:43:58.193Z,22.40
2022-10-18T07:46:26.508Z,22.48
2022-10-18T07:48:55.321Z,22.55
2022-10-18T07:51:23.714Z,22.63
2022-10-18T07:53:52.083Z,22.70
2022-10-18T07:56:23.568Z,22.78
2022-10-18T07:58:54.001Z,22.87
2022-10-18T08:01:23.665Z,22.96
2022-10-18T08:03:52.701Z,23.05
2022-10-18T08:06:22.827Z,23.15
2022-10-18T08:08:50.793Z,23.25
2022-10-18T08:11:22.227Z,23.37
2022-10-18T08:13:51.674Z,23.48
2022-10-18T08:16:22.903Z,23.58
2022-10-18T08:18:51.534Z,23.66
2022-10-18T08:21:20.929Z,23.74
2022-10-18T08:23:49.196Z,23.81
2022-10-18T08:26:20.048Z,23.87
2022-10-18T08:28:58.171Z,23.95
2022-10-18T08:31:37.867Z,24.05
2022-10-18T08:34:05.846Z,24.14
2022-10-18T08:36:33.795Z,24.21
2022-10-18T08:39:01.710Z,24.30
2022-10-18T08:41:55.765Z,24.38
2022-10-18T08:44:25.433Z,24.48
2022-10-18T08:47:07.127Z,24.57
2022-10-18T08:49:47.743Z,24.65
2022-10-18T08:52:34.739Z,24.74
2022-10-18T08:55:09.162Z,24.84
2022-10-18T08:57:37.034Z,24.94
2022-10-18T09:00:18.667Z,25.03
2022-10-18T09:03:05.368Z,25.12
2022-10-18T09:05:45.492Z,25.22
2022-10-18T09:08:54.869Z,25.30
2022-10-18T09:11:46.905Z,25.40
2022-10-18T09:14:23.842Z,25.50
2022-10-18T09:16:55.014Z,25.59
2022-10-18T09:19:41.532Z,25.66
2022-10-18T09:22:21.081Z,25.73
2022-10-18T09:24:57.183Z,25.81
2022-10-18T09:27:42.194Z,25.91
2022-10-18T09:30:25.522Z,26.01
2022-10-18T09:33:05.464Z,26.09
2022-10-18T09:36:05.083Z,26.16
2022-10-18T09:38:41.359Z,26.23
2022-10-18T09:41:20.687Z,26.31
2022-10-18T09:43:59.825Z,26.41
2022-10-18T09:46:39.197Z,26.52
2022-10-18T09:49:19.068Z,26.59
2022-10-18T09:51:49.277Z,26.65
2022-10-18T09:54:23.592Z,26.74
2022-10-18T09:57:02.424Z,26.83
2022-10-18T09:59:50.874Z,26.92
2022-10-18T10:02:21.912Z,27.03
2022-10-18T10:04:51.134Z,27.12
2022-10-18T10:07:21.921Z,27.20
2022-10-18T10:10:14.620Z,27.25
2022-10-18T10:12:42.901Z,27.33
2022-10-18T10:15:19.344Z,27.38
2022-10-18T10:18:02.416Z,27.46
2022-10-18T10:20:37.432Z,27.51
2022-10-18T10:23:08.931Z,27.51
2022-10-18T10:25:38.235Z,27.52
2022-10-18T10:28:20.605Z,27.53
2022-10-18T10:30:48.616Z,27.52
2022-10-18T10:33:57.691Z,27.47
2022-10-18T10:36:25.645Z,27.44
2022-10-18T10:39:04.766Z,27.45
2022-10-18T10:41:33.613Z,27.50
2022-10-18T10:44:05.015Z,27.56
2022-10-18T10:46:36.898Z,27.65
2022-10-18T10:49:35.062Z,27.74
2022-10-18T10:52:08.849Z,27.82
2022-10-18T10:54:52.492Z,27.86
2022-10-18T10:57:26.196Z,27.92
2022-10-18T10:59:56.360Z,28.00
2022-10-18T11:02:33.512Z,28.08
2022-10-18T11:05:25.007Z,28.18
2022-10-18T11:07:57.013Z,28.27
2022-10-18T11:10:30.901Z,28.29
2022-10-18T11:13:03.629Z,28.22
2022-10-18T11:15:45.229Z,28.18
2022-10-18T11:18:27.819Z,28.12
2022-10-18T11:20:58.454Z,28.08
2022-10-18T11:23:33.179Z,28.11
2022-10-18T11:26:32.409Z,28.18
2022-10-18T11:29:30.079Z,28.21
2022-10-18T11:32:26.780Z,28.26
2022-10-18T11:35:16.655Z,28.36
2022-10-18T11:37:47.529Z,28.58
2022-10-18T11:40:27.471Z,28.79
2022-10-18T11:43:50.540Z,28.92
2022-10-18T11:46:22.909Z,28.97
2022-10-18T11:49:02.920Z,28.98
2022-10-18T11:52:07.984Z,29.02
2022-10-18T11:54:43.845Z,29.10
2022-10-18T11:57:37.743Z,29.15
2022-10-18T12:00:23.751Z,29.24
2022-10-18T12:03:18.680Z,29.36
2022-10-18T12:05:48.752Z,29.44
2022-10-18T12:08:23.882Z,29.49
2022-10-18T12:11:10.225Z,29.56
2022-10-18T12:13:55.447Z,29.66
2022-10-18T12:16:49.578Z,29.75
2022-10-18T12:19:28.872Z,29.85
2022-10-18T12:22:02.678Z,29.93
2022-10-18T12:24:33.116Z,30.00
2022-10-18T12:27:02.304Z,30.07
2022-10-18T12:29:40.259Z,30.13
2022-10-18T12:32:13.163Z,30.18
2022-10-18T12:34:49.770Z,30.18
2022-10-18T12:37:20.635Z,30.15
2022-10-18T12:40:11.423Z,30.11
2022-10-18T12:42:48.100Z,30.09
2022-10-18T12:45:42.592Z,30.07
2022-10-18T12:48:29.040Z,30.06
2022-10-18T12:51:17.081Z,30.00
2022-10-18T12:53:49.182Z,29.92
2022-10-18T12:56:39.721Z,29.89
2022-10-18T12:59:16.874Z,29.89
2022-10-18T13:01:50.758Z,29.89
2022-10-18T13:04:28.117Z,29.88
2022-10-18T13:06:59.659Z,29.84
2022-10-18T13:09:28.763Z,29.77
2022-10-18T13:12:16.545Z,29.72
2022-10-18T13:15:13.376Z,29.71
2022-10-18T13:17:55.217Z,29.67
2022-10-18T13:20:40.861Z,29.63
2022-10-18T13:23:09.203Z,29.59
2022-10-18T13:25:58.639Z,29.58
2022-10-18T13:28:26.898Z,29.60
2022-10-18T13:31:09.880Z,29.64
2022-10-18T13:33:40.767Z,29.66
2022-10-18T13:36:22.663Z,29.68
2022-10-18T13:38:54.141Z,29.71
2022-10-18T13:41:29.180Z,29.72
2022-10-18T13:44:02.648Z,29.71
2022-10-18T13:46:33.488Z,29.73
2022-10-18T13:49:40.056Z,29.76
2022-10-18T13:52:54.750Z,29.82
2022-10-18T13:55:45.363Z,29.84
2022-10-18T13:58:32.094Z,29.81
2022-10-18T14:01:03.663Z,29.75
2022-10-18T14:03:58.099Z,29.68
2022-10-18T14:06:36.325Z,29.55
2022-10-18T14:12:21.782Z,29.40
2022-10-18T14:15:03.533Z,29.39
2022-10-18T14:17:34.532Z,29.41
2022-10-18T14:20:20.738Z,29.34
2022-10-18T14:23:03.194Z,29.30
2022-10-18T14:25:35.157Z,29.33
2022-10-18T14:28:27.320Z,29.38
2022-10-18T14:31:05.553Z,29.42
2022-10-18T14:33:44.319Z,29.43
2022-10-18T14:36:15.669Z,29.44
2022-10-18T14:39:00.864Z,29.45
2022-10-18T14:41:30.955Z,29.48
2022-10-18T14:44:32.169Z,29.50
2022-10-18T14:47:22.527Z,29.52
2022-10-18T14:49:51.601Z,29.53
2022-10-18T14:52:26.089Z,29.49
2022-10-18T14:54:56.361Z,29.45
2022-10-18T14:57:42.453Z,29.39
2022-10-18T15:02:51.858Z,29.24
2022-10-18T15:05:23.722Z,29.18
2022-10-18T15:07:53.117Z,29.12
2022-10-18T15:10:33.688Z,29.09
2022-10-18T15:13:09.736Z,29.07
2022-10-18T15:15:39.370Z,28.99
2022-10-18T15:18:08.207Z,28.90
2022-10-18T15:20:37.812Z,28.84
2022-10-18T15:23:29.051Z,28.78
2022-10-18T15:26:04.622Z,28.70
2022-10-18T15:28:34.424Z,28.62
2022-10-18T15:31:03.334Z,28.52
2022-10-18T15:33:33.054Z,28.48
2022-10-18T15:36:17.963Z,28.44
2022-10-18T15:38:49.108Z,28.42
2022-10-18T15:41:57.986Z,28.37
2022-10-18T15:44:34.697Z,28.28
2022-10-18T15:47:11.940Z,28.21
2022-10-18T15:49:46.473Z,28.13
2022-10-18T15:52:38.209Z,28.03
2022-10-18T15:55:32.068Z,27.91
2022-10-18T15:58:11.306Z,27.76
2022-10-18T16:00:39.293Z,27.62
2022-10-18T16:03:08.966Z,27.46
2022-10-18T16:05:38.232Z,27.32
2022-10-18T16:08:06.383Z,27.24
2022-10-18T16:10:34.366Z,27.17
2022-10-18T16:13:02.524Z,27.09
2022-10-18T16:15:30.583Z,27.00
2022-10-18T16:17:58.654Z,26.91
2022-10-18T16:20:26.609Z,26.83
2022-10-18T16:22:54.512Z,26.74
2022-10-18T16:25:22.341Z,26.65
2022-10-18T16:27:50.590Z,26.56
2022-10-18T16:30:21.034Z,26.49
2022-10-18T16:32:48.964Z,26.41
2022-10-18T16:35:16.979Z,26.33
2022-10-18T16:37:44.772Z,26.26
2022-10-18T16:40:25.214Z,26.19
2022-10-18T16:42:53.057Z,26.09
2022-10-18T16:45:21.053Z,26.03
2022-10-18T16:47:48.983Z,25.98
2022-10-18T16:50:19.803Z,25.92
2022-10-18T16:52:47.803Z,25.86
2022-10-18T16:55:15.977Z,25.80
2022-10-18T16:57:43.897Z,25.78
2022-10-18T17:00:22.940Z,25.74
2022-10-18T17:02:51.900Z,25.70
2022-10-18T17:05:20.580Z,25.68
2022-10-18T17:07:49.271Z,25.61
2022-10-18T17:10:21.433Z,25.55
2022-10-18T17:12:49.348Z,25.47
2022-10-18T17:15:18.477Z,25.42
2022-10-18T17:17:47.385Z,25.38
2022-10-18T17:20:24.427Z,25.36
2022-10-18T17:22:54.497Z,25.34
2022-10-18T17:25:22.463Z,25.32
2022-10-18T17:27:50.484Z,25.30
2022-10-18T17:30:18.592Z,25.28
2022-10-18T17:32:46.444Z,25.26
2022-10-18T17:35:14.369Z,25.25
2022-10-18T17:37:45.316Z,25.22
2022-10-18T17:40:14.056Z,25.20
2022-10-18T17:42:42.533Z,25.19
2022-10-18T17:45:10.657Z,25.16
2022-10-18T17:47:38.523Z,25.14
2022-10-18T17:50:06.919Z,25.10
2022-10-18T17:52:34.833Z,25.07
2022-10-18T17:55:02.739Z,25.04
2022-10-18T17:57:30.933Z,25.01
2022-10-18T17:59:59.052Z,24.99
2022-10-18T18:02:26.886Z,24.98
2022-10-18T18:04:55.127Z,24.96
2022-10-18T18:07:23.000Z,24.95
2022-10-18T18:09:50.897Z,24.96
2022-10-18T18:12:18.915Z,24.98
2022-10-18T18:14:47.254Z,24.96
2022-10-18T18:17:17.017Z,24.95
2022-10-18T18:19:49.497Z,24.97
2022-10-18T18:22:17.446Z,24.98
2022-10-18T18:24:45.401Z,24.98
2022-10-18T18:27:13.325Z,25.00
2022-10-18T18:29:41.157Z,25.00
2022-10-18T18:32:09.390Z,25.01
2022-10-18T18:34:37.398Z,25.00
2022-10-18T18:37:05.271Z,25.01
2022-10-18T18:39:33.186Z,24.99
2022-10-18T18:42:01.873Z,24.98
2022-10-18T18:44:29.979Z,24.96
2022-10-18T18:46:58.280Z,24.94
2022-10-18T18:49:26.447Z,24.93
2022-10-18T18:51:54.607Z,24.94
2022-10-18T18:54:22.718Z,24.95
2022-10-18T18:56:51.452Z,24.92
2022-10-18T18:59:19.242Z,24.91
2022-10-18T19:01:47.580Z,24.91
2022-10-18T19:04:20.453Z,24.92
2022-10-18T19:06:48.290Z,24.92
2022-10-18T19:09:18.078Z,24.93
2022-10-18T19:11:48.238Z,24.94
2022-10-18T19:14:16.618Z,24.95
2022-10-18T19:16:53.745Z,24.96
2022-10-18T19:19:24.208Z,24.98
2022-10-18T19:21:54.953Z,24.99
2022-10-18T19:24:24.730Z,25.00
2022-10-18T19:26:55.591Z,25.02
2022-10-18T19:29:25.007Z,25.04
2022-10-18T19:31:55.825Z,25.06
2022-10-18T19:34:25.750Z,25.06
2022-10-18T19:36:54.278Z,25.07
2022-10-18T19:39:26.605Z,25.09
2022-10-18T19:41:56.422Z,25.10
2022-10-18T19:44:28.235Z,25.11
2022-10-18T19:46:56.260Z,25.12
2022-10-18T19:49:24.192Z,25.12
2022-10-18T19:51:52.616Z,25.13
2022-10-18T19:54:21.101Z,25.12
2022-10-18T19:56:49.379Z,25.12
2022-10-18T19:59:17.766Z,25.11
2022-10-18T20:01:46.191Z,25.09
2022-10-18T20:04:15.079Z,25.08
2022-10-18T20:06:43.371Z,25.07
2022-10-18T20:09:16.097Z,25.05
2022-10-18T20:11:47.706Z,25.04
2022-10-18T20:14:15.833Z,25.04
2022-10-18T20:16:43.710Z,25.03
2022-10-18T20:19:11.649Z,25.02
2022-10-18T20:21:39.524Z,25.01
2022-10-18T20:24:08.040Z,24.99
2022-10-18T20:26:36.525Z,24.97
2022-10-18T20:29:04.982Z,24.95
2022-10-18T20:31:34.596Z,24.92
2022-10-18T20:34:05.259Z,24.90
2022-10-18T20:36:34.008Z,24.88
2022-10-18T20:39:02.230Z,24.88
2022-10-18T20:41:33.372Z,24.88
2022-10-18T20:44:04.530Z,24.88
2022-10-18T20:46:35.524Z,24.87
2022-10-18T20:49:06.010Z,24.88
2022-10-18T20:51:35.296Z,24.87
2022-10-18T20:56:38.718Z,24.87
2022-10-18T20:59:07.426Z,24.87
2022-10-18T21:01:37.148Z,24.86
2022-10-18T21:04:08.011Z,24.86
2022-10-18T21:06:38.684Z,24.85
2022-10-18T21:09:18.279Z,24.84
2022-10-18T21:11:49.864Z,24.84
2022-10-18T21:14:20.894Z,24.83
2022-10-18T21:16:51.207Z,24.81
2022-10-18T21:19:25.278Z,24.79
2022-10-18T21:21:56.986Z,24.78
2022-10-18T21:24:25.887Z,24.76
2022-10-18T21:26:54.598Z,24.75
2022-10-18T21:29:23.603Z,24.74
2022-10-18T21:31:55.212Z,24.74
2022-10-18T21:34:23.157Z,24.72
2022-10-18T21:36:51.326Z,24.71
2022-10-18T21:39:22.116Z,24.69
2022-10-18T21:41:50.970Z,24.68
2022-10-18T21:44:18.841Z,24.67
2022-10-18T21:46:47.069Z,24.65
2022-10-18T21:49:15.562Z,24.63
2022-10-18T21:51:43.793Z,24.61
2022-10-18T21:54:14.380Z,24.60
2022-10-18T21:56:42.665Z,24.59
2022-10-18T21:59:14.345Z,24.57
2022-10-18T22:01:42.328Z,24.56
2022-10-18T22:04:22.520Z,24.56
2022-10-18T22:06:50.941Z,24.54
2022-10-18T22:09:19.677Z,24.54
2022-10-18T22:11:51.545Z,24.54
2022-10-18T22:14:20.160Z,24.52
2022-10-18T22:16:48.349Z,24.51
2022-10-18T22:19:16.327Z,24.51
2022-10-18T22:21:44.319Z,24.50
2022-10-18T22:24:12.154Z,24.49
2022-10-18T22:26:42.477Z,24.48
2022-10-18T22:29:14.643Z,24.46
2022-10-18T22:31:46.496Z,24.46
2022-10-18T22:34:20.520Z,24.43
2022-10-18T22:36:48.797Z,24.43
2022-10-18T22:39:16.784Z,24.41
2022-10-18T22:41:45.386Z,24.39
2022-10-18T22:44:15.397Z,24.37
2022-10-18T22:46:43.385Z,24.35
2022-10-18T22:49:11.833Z,24.33
2022-10-18T22:51:40.589Z,24.30
2022-10-18T22:54:09.209Z,24.27
2022-10-18T22:56:37.111Z,24.25
2022-10-18T22:59:05.125Z,24.23
2022-10-18T23:01:33.038Z,24.21
2022-10-18T23:04:01.691Z,24.18
2022-10-18T23:06:35.814Z,24.15
2022-10-18T23:09:07.245Z,24.13
2022-10-18T23:11:36.355Z,24.10
2022-10-18T23:14:06.360Z,24.08
2022-10-18T23:16:35.228Z,24.06
2022-10-18T23:19:03.813Z,24.03
2022-10-18T23:21:34.199Z,24.01
2022-10-18T23:24:02.069Z,23.99
2022-10-18T23:26:30.033Z,23.95
2022-10-18T23:28:57.964Z,23.92
2022-10-18T23:31:29.223Z,23.89
2022-10-18T23:33:59.505Z,23.86
2022-10-18T23:36:27.502Z,23.84
2022-10-18T23:38:56.201Z,23.81
2022-10-18T23:41:24.580Z,23.79
2022-10-18T23:43:52.892Z,23.77
2022-10-18T23:46:21.173Z,23.74
2022-10-18T23:48:49.688Z,23.72
2022-10-18T23:51:18.136Z,23.69
2022-10-18T23:53:46.382Z,23.66
2022-10-18T23:56:16.611Z,23.64
2022-10-18T23:58:45.563Z,23.62
